sensor_id;sensor_type;location;lat;lon;timestamp;pressure;altitude;pressure_sealevel;temperature;humidity
64095;BME280;50353;51.420;5.682;2023-02-17T00:01:22;101746.00;;;10.74;100.00
64095;BME280;50353;51.420;5.682;2023-02-17T00:03:49;101741.00;;;10.49;100.00
64095;BME280;50353;51.420;5.682;2023-02-17T00:06:16;101736.44;;;10.53;100.00
64095;BME280;50353;51.420;5.682;2023-02-17T00:08:42;101735.78;;;10.47;100.00
64095;BME280;50353;51.420;5.682;2023-02-17T00:11:07;101734.16;;;10.64;100.00
64095;BME280;50353;51.420;5.682;2023-02-17T00:13:32;101726.44;;;10.59;100.00
64095;BME280;50353;51.420;5.682;2023-02-17T00:15:58;101728.50;;;10.53;100.00
64095;BME280;50353;51.420;5.682;2023-02-17T00:18:24;101733.00;;;10.51;100.00
64095;BME280;50353;51.420;5.682;2023-02-17T00:20:49;101734.88;;;10.68;100.00
64095;BME280;50353;51.420;5.682;2023-02-17T00:23:15;101725.91;;;10.51;100.00
64095;BME280;50353;51.420;5.682;2023-02-17T00:25:40;101727.22;;;10.61;100.00
64095;BME280;50353;51.420;5.682;2023-02-17T00:28:06;101723.91;;;10.75;100.00
64095;BME280;50353;51.420;5.682;2023-02-17T00:30:31;101720.50;;;10.73;99.06
64095;BME280;50353;51.420;5.682;2023-02-17T00:32:56;101726.44;;;10.78;99.11
64095;BME280;50353;51.420;5.682;2023-02-17T00:35:21;101723.34;;;10.69;100.00
64095;BME280;50353;51.420;5.682;2023-02-17T00:37:47;101718.69;;;10.74;100.00
64095;BME280;50353;51.420;5.682;2023-02-17T00:40:13;101716.78;;;10.77;99.79
64095;BME280;50353;51.420;5.682;2023-02-17T00:42:39;101713.84;;;10.83;99.43
64095;BME280;50353;51.420;5.682;2023-02-17T00:45:04;101722.00;;;10.79;100.00
64095;BME280;50353;51.420;5.682;2023-02-17T00:47:30;101722.41;;;10.89;100.00
64095;BME280;50353;51.420;5.682;2023-02-17T00:49:55;101721.75;;;10.83;100.00
64095;BME280;50353;51.420;5.682;2023-02-17T00:52:20;101719.28;;;10.80;100.00
64095;BME280;50353;51.420;5.682;2023-02-17T00:54:45;101713.84;;;10.83;99.74
64095;BME280;50353;51.420;5.682;2023-02-17T00:57:11;101717.69;;;10.95;98.94
64095;BME280;50353;51.420;5.682;2023-02-17T00:59:36;101716.13;;;10.91;98.61
64095;BME280;50353;51.420;5.682;2023-02-17T01:02:01;101714.41;;;10.90;99.08
64095;BME280;50353;51.420;5.682;2023-02-17T01:04:27;101710.56;;;10.78;99.54
64095;BME280;50353;51.420;5.682;2023-02-17T01:06:52;101706.38;;;10.92;99.24
64095;BME280;50353;51.420;5.682;2023-02-17T01:09:17;101700.97;;;10.95;97.02
64095;BME280;50353;51.420;5.682;2023-02-17T01:11:43;101693.59;;;11.02;97.75
64095;BME280;50353;51.420;5.682;2023-02-17T01:14:11;101695.84;;;11.09;96.71
64095;BME280;50353;51.420;5.682;2023-02-17T01:16:38;101683.66;;;10.88;96.92
64095;BME280;50353;51.420;5.682;2023-02-17T01:19:07;101687.28;;;11.04;94.87
64095;BME280;50353;51.420;5.682;2023-02-17T01:21:34;101684.78;;;11.01;95.67
64095;BME280;50353;51.420;5.682;2023-02-17T01:24:00;101680.25;;;10.86;95.23
64095;BME280;50353;51.420;5.682;2023-02-17T01:26:27;101683.72;;;11.05;95.24
64095;BME280;50353;51.420;5.682;2023-02-17T01:28:53;101695.16;;;11.06;94.95
64095;BME280;50353;51.420;5.682;2023-02-17T01:31:20;101673.28;;;11.02;94.67
64095;BME280;50353;51.420;5.682;2023-02-17T01:33:46;101683.06;;;11.00;94.44
64095;BME280;50353;51.420;5.682;2023-02-17T01:36:13;101689.81;;;11.07;93.98
64095;BME280;50353;51.420;5.682;2023-02-17T01:38:38;101687.50;;;10.99;94.36
64095;BME280;50353;51.420;5.682;2023-02-17T01:41:05;101694.53;;;11.01;95.42
64095;BME280;50353;51.420;5.682;2023-02-17T01:43:31;101691.31;;;10.94;96.13
64095;BME280;50353;51.420;5.682;2023-02-17T01:46:02;101684.03;;;11.16;94.35
64095;BME280;50353;51.420;5.682;2023-02-17T01:48:30;101681.13;;;11.04;95.09
64095;BME280;50353;51.420;5.682;2023-02-17T01:51:03;101670.41;;;11.07;94.88
64095;BME280;50353;51.420;5.682;2023-02-17T01:53:34;101682.16;;;11.01;94.76
64095;BME280;50353;51.420;5.682;2023-02-17T01:56:01;101692.66;;;11.03;94.69
64095;BME280;50353;51.420;5.682;2023-02-17T01:58:29;101688.22;;;11.03;93.88
64095;BME280;50353;51.420;5.682;2023-02-17T02:00:54;101687.50;;;10.99;94.69
64095;BME280;50353;51.420;5.682;2023-02-17T02:03:22;101675.22;;;10.98;94.37
64095;BME280;50353;51.420;5.682;2023-02-17T02:05:48;101679.91;;;11.11;93.57
64095;BME280;50353;51.420;5.682;2023-02-17T02:08:14;101674.06;;;11.04;93.55
64095;BME280;50353;51.420;5.682;2023-02-17T02:10:40;101676.41;;;11.10;93.57
64095;BME280;50353;51.420;5.682;2023-02-17T02:13:06;101684.50;;;11.07;93.11
64095;BME280;50353;51.420;5.682;2023-02-17T02:16:06;101675.38;;;10.95;92.91
64095;BME280;50353;51.420;5.682;2023-02-17T02:23:57;101691.25;;;10.95;93.99
64095;BME280;50353;51.420;5.682;2023-02-17T02:26:45;101681.66;;;10.93;94.17
64095;BME280;50353;51.420;5.682;2023-02-17T02:32:26;101664.25;;;11.06;92.04
64095;BME280;50353;51.420;5.682;2023-02-17T02:35:06;101657.69;;;10.96;92.77
64095;BME280;50353;51.420;5.682;2023-02-17T02:37:39;101669.22;;;10.95;93.48
64095;BME280;50353;51.420;5.682;2023-02-17T02:40:09;101661.84;;;11.02;92.60
64095;BME280;50353;51.420;5.682;2023-02-17T02:42:35;101652.41;;;10.96;91.45
64095;BME280;50353;51.420;5.682;2023-02-17T02:45:04;101647.53;;;11.06;90.91
64095;BME280;50353;51.420;5.682;2023-02-17T02:47:52;101646.91;;;11.01;90.69
64095;BME280;50353;51.420;5.682;2023-02-17T02:50:26;101654.94;;;10.99;91.51
64095;BME280;50353;51.420;5.682;2023-02-17T02:53:03;101642.63;;;10.98;91.09
64095;BME280;50353;51.420;5.682;2023-02-17T02:55:46;101624.53;;;10.89;90.40
64095;BME280;50353;51.420;5.682;2023-02-17T03:01:15;101624.31;;;10.93;90.22
64095;BME280;50353;51.420;5.682;2023-02-17T03:06:16;101616.09;;;10.99;89.49
64095;BME280;50353;51.420;5.682;2023-02-17T03:08:48;101607.22;;;11.01;89.00
64095;BME280;50353;51.420;5.682;2023-02-17T03:11:15;101595.84;;;10.98;89.02
64095;BME280;50353;51.420;5.682;2023-02-17T03:13:59;101580.19;;;10.76;89.92
64095;BME280;50353;51.420;5.682;2023-02-17T03:16:25;101587.75;;;10.84;90.15
64095;BME280;50353;51.420;5.682;2023-02-17T03:18:50;101590.78;;;10.94;90.71
64095;BME280;50353;51.420;5.682;2023-02-17T03:21:15;101591.47;;;10.80;91.33
64095;BME280;50353;51.420;5.682;2023-02-17T03:23:40;101579.75;;;10.86;91.35
64095;BME280;50353;51.420;5.682;2023-02-17T03:26:06;101598.41;;;11.00;91.23
64095;BME280;50353;51.420;5.682;2023-02-17T03:28:31;101599.09;;;10.86;91.55
64095;BME280;50353;51.420;5.682;2023-02-17T03:30:56;101594.38;;;10.93;89.91
64095;BME280;50353;51.420;5.682;2023-02-17T03:33:22;101588.91;;;10.78;90.00
64095;BME280;50353;51.420;5.682;2023-02-17T03:35:47;101594.13;;;10.80;89.81
64095;BME280;50353;51.420;5.682;2023-02-17T03:38:12;101606.03;;;10.89;89.47
64095;BME280;50353;51.420;5.682;2023-02-17T03:40:38;101607.03;;;10.86;89.72
64095;BME280;50353;51.420;5.682;2023-02-17T03:43:03;101621.59;;;10.77;90.17
64095;BME280;50353;51.420;5.682;2023-02-17T03:45:29;101622.66;;;10.73;90.13
64095;BME280;50353;51.420;5.682;2023-02-17T03:47:55;101614.22;;;10.84;89.88
64095;BME280;50353;51.420;5.682;2023-02-17T03:50:20;101609.13;;;10.79;90.19
64095;BME280;50353;51.420;5.682;2023-02-17T03:52:45;101620.94;;;10.72;90.74
64095;BME280;50353;51.420;5.682;2023-02-17T03:55:11;101609.88;;;10.64;90.81
64095;BME280;50353;51.420;5.682;2023-02-17T03:57:36;101603.19;;;10.74;90.47
64095;BME280;50353;51.420;5.682;2023-02-17T04:00:03;101603.69;;;10.82;90.51
64095;BME280;50353;51.420;5.682;2023-02-17T04:02:28;101609.47;;;10.91;90.72
64095;BME280;50353;51.420;5.682;2023-02-17T04:04:53;101600.50;;;10.93;90.08
64095;BME280;50353;51.420;5.682;2023-02-17T04:07:19;101593.44;;;10.94;89.95
64095;BME280;50353;51.420;5.682;2023-02-17T04:09:44;101592.56;;;10.76;91.43
64095;BME280;50353;51.420;5.682;2023-02-17T04:12:09;101599.56;;;10.94;90.45
64095;BME280;50353;51.420;5.682;2023-02-17T04:14:34;101617.25;;;10.94;90.75
64095;BME280;50353;51.420;5.682;2023-02-17T04:17:00;101618.25;;;10.91;90.52
64095;BME280;50353;51.420;5.682;2023-02-17T04:19:25;101616.38;;;10.93;90.16
64095;BME280;50353;51.420;5.682;2023-02-17T04:21:50;101615.13;;;10.83;91.26
64095;BME280;50353;51.420;5.682;2023-02-17T04:24:16;101619.41;;;10.86;91.30
64095;BME280;50353;51.420;5.682;2023-02-17T04:26:41;101618.50;;;10.87;91.20
64095;BME280;50353;51.420;5.682;2023-02-17T04:29:06;101617.78;;;10.83;90.61
64095;BME280;50353;51.420;5.682;2023-02-17T04:31:31;101618.22;;;10.74;90.47
64095;BME280;50353;51.420;5.682;2023-02-17T04:33:57;101623.16;;;10.81;90.44
64095;BME280;50353;51.420;5.682;2023-02-17T04:36:22;101623.69;;;10.88;90.17
64095;BME280;50353;51.420;5.682;2023-02-17T04:38:47;101621.78;;;10.73;91.26
64095;BME280;50353;51.420;5.682;2023-02-17T04:41:13;101611.63;;;10.82;89.49
64095;BME280;50353;51.420;5.682;2023-02-17T04:43:38;101621.19;;;10.85;89.77
64095;BME280;50353;51.420;5.682;2023-02-17T04:46:04;101611.47;;;10.86;90.61
64095;BME280;50353;51.420;5.682;2023-02-17T04:48:29;101617.94;;;10.80;89.95
64095;BME280;50353;51.420;5.682;2023-02-17T04:50:55;101621.34;;;10.82;89.71
64095;BME280;50353;51.420;5.682;2023-02-17T04:53:20;101621.41;;;10.80;90.71
64095;BME280;50353;51.420;5.682;2023-02-17T04:55:51;101606.63;;;10.76;90.44
64095;BME280;50353;51.420;5.682;2023-02-17T04:58:17;101618.00;;;10.78;90.50
64095;BME280;50353;51.420;5.682;2023-02-17T05:00:42;101618.50;;;10.87;89.90
64095;BME280;50353;51.420;5.682;2023-02-17T05:03:08;101620.81;;;10.93;90.92
64095;BME280;50353;51.420;5.682;2023-02-17T05:05:33;101608.91;;;10.84;90.39
64095;BME280;50353;51.420;5.682;2023-02-17T05:07:59;101603.88;;;10.97;90.73
64095;BME280;50353;51.420;5.682;2023-02-17T05:10:24;101608.75;;;10.87;90.32
64095;BME280;50353;51.420;5.682;2023-02-17T05:12:49;101605.47;;;10.82;91.44
64095;BME280;50353;51.420;5.682;2023-02-17T05:15:15;101596.63;;;10.83;90.01
64095;BME280;50353;51.420;5.682;2023-02-17T05:17:40;101600.91;;;10.86;90.67
64095;BME280;50353;51.420;5.682;2023-02-17T05:20:06;101589.94;;;10.76;92.41
64095;BME280;50353;51.420;5.682;2023-02-17T05:22:31;101582.75;;;10.78;92.34
64095;BME280;50353;51.420;5.682;2023-02-17T05:24:57;101599.25;;;10.83;91.55
64095;BME280;50353;51.420;5.682;2023-02-17T05:27:22;101590.06;;;10.73;92.01
64095;BME280;50353;51.420;5.682;2023-02-17T05:29:48;101596.78;;;10.80;92.52
64095;BME280;50353;51.420;5.682;2023-02-17T05:32:13;101593.25;;;10.79;92.00
64095;BME280;50353;51.420;5.682;2023-02-17T05:34:38;101586.88;;;10.83;93.13
64095;BME280;50353;51.420;5.682;2023-02-17T05:37:04;101591.97;;;10.88;91.88
64095;BME280;50353;51.420;5.682;2023-02-17T05:39:29;101597.69;;;10.79;92.43
64095;BME280;50353;51.420;5.682;2023-02-17T05:41:55;101601.34;;;10.76;93.07
64095;BME280;50353;51.420;5.682;2023-02-17T05:44:20;101587.16;;;10.60;94.38
64095;BME280;50353;51.420;5.682;2023-02-17T05:46:46;101596.13;;;10.75;94.17
64095;BME280;50353;51.420;5.682;2023-02-17T05:49:11;101589.31;;;10.88;92.43
64095;BME280;50353;51.420;5.682;2023-02-17T05:51:36;101594.22;;;10.78;93.26
64095;BME280;50353;51.420;5.682;2023-02-17T05:54:02;101584.09;;;10.87;92.39
64095;BME280;50353;51.420;5.682;2023-02-17T05:56:27;101603.84;;;10.79;93.15
64095;BME280;50353;51.420;5.682;2023-02-17T05:58:52;101604.63;;;10.81;92.86
64095;BME280;50353;51.420;5.682;2023-02-17T06:01:18;101599.63;;;10.75;93.50
64095;BME280;50353;51.420;5.682;2023-02-17T06:03:43;101603.53;;;10.86;92.79
64095;BME280;50353;51.420;5.682;2023-02-17T06:06:08;101601.53;;;10.91;92.60
64095;BME280;50353;51.420;5.682;2023-02-17T06:08:34;101609.13;;;10.79;93.97
64095;BME280;50353;51.420;5.682;2023-02-17T06:11:00;101600.66;;;10.90;93.48
64095;BME280;50353;51.420;5.682;2023-02-17T06:13:25;101606.47;;;10.79;94.26
64095;BME280;50353;51.420;5.682;2023-02-17T06:15:50;101596.53;;;10.85;93.92
64095;BME280;50353;51.420;5.682;2023-02-17T06:18:15;101590.59;;;10.79;94.54
64095;BME280;50353;51.420;5.682;2023-02-17T06:20:41;101596.97;;;10.75;95.95
64095;BME280;50353;51.420;5.682;2023-02-17T06:23:06;101590.41;;;10.84;94.42
64095;BME280;50353;51.420;5.682;2023-02-17T06:25:31;101593.56;;;10.73;95.14
64095;BME280;50353;51.420;5.682;2023-02-17T06:27:57;101598.69;;;10.76;94.70
64095;BME280;50353;51.420;5.682;2023-02-17T06:30:22;101602.44;;;10.72;95.15
64095;BME280;50353;51.420;5.682;2023-02-17T06:32:48;101597.25;;;10.88;94.99
64095;BME280;50353;51.420;5.682;2023-02-17T06:35:13;101596.47;;;10.86;95.04
64095;BME280;50353;51.420;5.682;2023-02-17T06:37:39;101601.34;;;10.76;94.64
64095;BME280;50353;51.420;5.682;2023-02-17T06:40:04;101587.19;;;10.77;95.16
64095;BME280;50353;51.420;5.682;2023-02-17T06:42:30;101596.78;;;10.80;95.31
64095;BME280;50353;51.420;5.682;2023-02-17T06:44:55;101595.41;;;10.71;94.35
64095;BME280;50353;51.420;5.682;2023-02-17T06:47:20;101590.84;;;10.75;95.13
64095;BME280;50353;51.420;5.682;2023-02-17T06:49:46;101604.63;;;10.81;94.99
64095;BME280;50353;51.420;5.682;2023-02-17T06:52:11;101603.63;;;10.84;94.32
64095;BME280;50353;51.420;5.682;2023-02-17T06:54:36;101584.94;;;10.87;95.19
64095;BME280;50353;51.420;5.682;2023-02-17T06:57:01;101585.41;;;10.78;94.23
64095;BME280;50353;51.420;5.682;2023-02-17T06:59:27;101575.09;;;10.91;94.35
64095;BME280;50353;51.420;5.682;2023-02-17T07:01:52;101579.09;;;10.80;95.24
64095;BME280;50353;51.420;5.682;2023-02-17T07:04:18;101586.75;;;10.87;94.53
64095;BME280;50353;51.420;5.682;2023-02-17T07:06:43;101581.94;;;10.95;94.67
64095;BME280;50353;51.420;5.682;2023-02-17T07:09:08;101589.94;;;10.76;95.48
64095;BME280;50353;51.420;5.682;2023-02-17T07:11:37;101589.31;;;10.88;95.54
64095;BME280;50353;51.420;5.682;2023-02-17T07:14:02;101595.63;;;10.86;94.51
64095;BME280;50353;51.420;5.682;2023-02-17T07:16:28;101599.09;;;10.86;95.70
64095;BME280;50353;51.420;5.682;2023-02-17T07:18:53;101609.94;;;10.99;95.12
64095;BME280;50353;51.420;5.682;2023-02-17T07:21:18;101599.63;;;10.75;94.81
64095;BME280;50353;51.420;5.682;2023-02-17T07:23:43;101609.16;;;10.97;95.30
64095;BME280;50353;51.420;5.682;2023-02-17T07:26:10;101594.06;;;10.99;95.37
64095;BME280;50353;51.420;5.682;2023-02-17T07:28:37;101595.56;;;11.05;93.90
64095;BME280;50353;51.420;5.682;2023-02-17T07:31:07;101598.50;;;10.98;93.73
64095;BME280;50353;51.420;5.682;2023-02-17T07:33:33;101609.47;;;10.91;94.44
64095;BME280;50353;51.420;5.682;2023-02-17T07:35:59;101608.00;;;11.03;95.31
64095;BME280;50353;51.420;5.682;2023-02-17T07:38:24;101588.72;;;11.01;94.60
64095;BME280;50353;51.420;5.682;2023-02-17T07:40:49;101583.53;;;10.97;94.84
64095;BME280;50353;51.420;5.682;2023-02-17T07:43:15;101589.25;;;11.07;94.44
64095;BME280;50353;51.420;5.682;2023-02-17T07:45:40;101579.44;;;11.09;93.95
64095;BME280;50353;51.420;5.682;2023-02-17T07:48:05;101578.50;;;11.10;94.20
64095;BME280;50353;51.420;5.682;2023-02-17T07:50:30;101588.06;;;10.95;95.31
64095;BME280;50353;51.420;5.682;2023-02-17T07:52:56;101578.25;;;10.97;94.81
64095;BME280;50353;51.420;5.682;2023-02-17T07:55:21;101581.00;;;11.13;94.29
64095;BME280;50353;51.420;5.682;2023-02-17T07:57:48;101584.03;;;11.06;94.43
64095;BME280;50353;51.420;5.682;2023-02-17T08:00:14;101578.34;;;11.13;94.24
64095;BME280;50353;51.420;5.682;2023-02-17T08:02:39;101582.72;;;11.14;94.16
64095;BME280;50353;51.420;5.682;2023-02-17T08:05:04;101585.34;;;11.14;94.04
64095;BME280;50353;51.420;5.682;2023-02-17T08:07:30;101582.47;;;11.19;93.90
64095;BME280;50353;51.420;5.682;2023-02-17T08:09:57;101576.72;;;11.28;93.71
64095;BME280;50353;51.420;5.682;2023-02-17T08:12:40;101588.31;;;11.26;93.99
64095;BME280;50353;51.420;5.682;2023-02-17T08:15:44;101582.72;;;11.32;93.59
64095;BME280;50353;51.420;5.682;2023-02-17T08:18:09;101579.66;;;11.40;93.34
64095;BME280;50353;51.420;5.682;2023-02-17T08:20:35;101572.41;;;11.43;93.88
64095;BME280;50353;51.420;5.682;2023-02-17T08:23:00;101579.91;;;11.35;93.81
64095;BME280;50353;51.420;5.682;2023-02-17T08:25:33;101589.41;;;11.39;93.18
64095;BME280;50353;51.420;5.682;2023-02-17T08:27:59;101603.72;;;11.35;94.13
64095;BME280;50353;51.420;5.682;2023-02-17T08:30:24;101591.13;;;11.40;92.46
64095;BME280;50353;51.420;5.682;2023-02-17T08:32:50;101591.34;;;11.36;92.44
64095;BME280;50353;51.420;5.682;2023-02-17T08:35:15;101596.56;;;11.37;93.18
64095;BME280;50353;51.420;5.682;2023-02-17T08:37:43;101590.47;;;11.35;93.76
64095;BME280;50353;51.420;5.682;2023-02-17T08:40:09;101592.97;;;11.38;93.13
64095;BME280;50353;51.420;5.682;2023-02-17T08:42:34;101588.84;;;11.50;93.01
64095;BME280;50353;51.420;5.682;2023-02-17T08:44:59;101588.84;;;11.50;92.60
64095;BME280;50353;51.420;5.682;2023-02-17T08:47:25;101587.38;;;11.44;93.08
64095;BME280;50353;51.420;5.682;2023-02-17T08:49:50;101586.81;;;11.38;92.97
64095;BME280;50353;51.420;5.682;2023-02-17T08:52:15;101599.50;;;11.48;92.63
64095;BME280;50353;51.420;5.682;2023-02-17T08:54:41;101604.41;;;11.56;92.68
64095;BME280;50353;51.420;5.682;2023-02-17T08:57:06;101600.97;;;11.54;93.32
64095;BME280;50353;51.420;5.682;2023-02-17T08:59:31;101601.53;;;11.61;92.88
64095;BME280;50353;51.420;5.682;2023-02-17T09:01:57;101589.75;;;11.66;92.97
64095;BME280;50353;51.420;5.682;2023-02-17T09:04:22;101586.38;;;11.63;92.11
64095;BME280;50353;51.420;5.682;2023-02-17T09:06:50;101580.03;;;11.67;92.21
64095;BME280;50353;51.420;5.682;2023-02-17T09:09:18;101586.88;;;11.71;92.25
64095;BME280;50353;51.420;5.682;2023-02-17T09:11:45;101591.53;;;11.66;92.27
64095;BME280;50353;51.420;5.682;2023-02-17T09:14:10;101592.84;;;11.75;91.51
64095;BME280;50353;51.420;5.682;2023-02-17T09:16:36;101607.19;;;11.71;92.21
64095;BME280;50353;51.420;5.682;2023-02-17T09:19:02;101620.88;;;11.79;91.73
64095;BME280;50353;51.420;5.682;2023-02-17T09:21:27;101602.88;;;11.86;91.31
64095;BME280;50353;51.420;5.682;2023-02-17T09:23:53;101602.53;;;12.09;91.08
64095;BME280;50353;51.420;5.682;2023-02-17T09:26:18;101607.03;;;12.07;91.09
64095;BME280;50353;51.420;5.682;2023-02-17T09:28:44;101607.84;;;11.92;90.48
64095;BME280;50353;51.420;5.682;2023-02-17T09:33:37;101619.28;;;11.92;90.94
64095;BME280;50353;51.420;5.682;2023-02-17T09:36:04;101627.50;;;11.88;90.92
64095;BME280;50353;51.420;5.682;2023-02-17T09:38:29;101620.38;;;12.06;90.57
64095;BME280;50353;51.420;5.682;2023-02-17T09:41:01;101630.28;;;12.02;90.73
64095;BME280;50353;51.420;5.682;2023-02-17T09:43:29;101626.75;;;12.19;89.77
64095;BME280;50353;51.420;5.682;2023-02-17T09:46:01;101643.53;;;12.02;90.19
64095;BME280;50353;51.420;5.682;2023-02-17T09:48:29;101648.66;;;12.05;90.26
64095;BME280;50353;51.420;5.682;2023-02-17T09:51:09;101643.97;;;12.10;90.06
64095;BME280;50353;51.420;5.682;2023-02-17T09:53:40;101650.59;;;12.19;90.29
64095;BME280;50353;51.420;5.682;2023-02-17T09:56:10;101625.59;;;12.07;90.67
64095;BME280;50353;51.420;5.682;2023-02-17T09:58:51;101629.22;;;12.22;90.29
64095;BME280;50353;51.420;5.682;2023-02-17T10:01:38;101634.78;;;12.33;89.51
64095;BME280;50353;51.420;5.682;2023-02-17T10:04:08;101641.72;;;12.36;89.21
64095;BME280;50353;51.420;5.682;2023-02-17T10:07:23;101633.22;;;12.29;89.17
64095;BME280;50353;51.420;5.682;2023-02-17T10:09:33;101629.81;;;12.27;89.04
64095;BME280;50353;51.420;5.682;2023-02-17T10:12:05;101649.00;;;12.32;88.82
64095;BME280;50353;51.420;5.682;2023-02-17T10:20:23;101655.22;;;12.31;88.48
64095;BME280;50353;51.420;5.682;2023-02-17T10:22:43;101652.13;;;12.23;89.20
64095;BME280;50353;51.420;5.682;2023-02-17T10:25:19;101643.31;;;12.23;88.32
64095;BME280;50353;51.420;5.682;2023-02-17T10:27:56;101660.94;;;12.24;88.92
64095;BME280;50353;51.420;5.682;2023-02-17T10:30:37;101655.13;;;12.33;89.04
64095;BME280;50353;51.420;5.682;2023-02-17T10:33:22;101647.72;;;12.56;87.78
64095;BME280;50353;51.420;5.682;2023-02-17T10:35:50;101651.03;;;12.59;87.11
64095;BME280;50353;51.420;5.682;2023-02-17T10:40:49;101641.63;;;12.70;85.93
64095;BME280;50353;51.420;5.682;2023-02-17T10:43:21;101643.00;;;12.93;85.44
64095;BME280;50353;51.420;5.682;2023-02-17T10:45:49;101634.44;;;12.88;85.19
64095;BME280;50353;51.420;5.682;2023-02-17T10:48:51;101643.50;;;12.83;85.73
64095;BME280;50353;51.420;5.682;2023-02-17T10:51:21;101634.63;;;12.84;84.45
64095;BME280;50353;51.420;5.682;2023-02-17T10:53:50;101647.31;;;12.94;84.23
64095;BME280;50353;51.420;5.682;2023-02-17T10:56:33;101648.13;;;12.96;84.98
64095;BME280;50353;51.420;5.682;2023-02-17T10:59:07;101651.56;;;12.98;84.53
64095;BME280;50353;51.420;5.682;2023-02-17T11:01:38;101651.66;;;12.80;nan
64095;BME280;50353;51.420;5.682;2023-02-17T11:04:06;101630.16;;;12.69;85.08
64095;BME280;50353;51.420;5.682;2023-02-17T11:06:37;101657.81;;;12.81;84.87
64095;BME280;50353;51.420;5.682;2023-02-17T11:09:16;101650.53;;;12.84;84.60
64095;BME280;50353;51.420;5.682;2023-02-17T11:11:57;101658.72;;;12.80;85.16
64095;BME280;50353;51.420;5.682;2023-02-17T11:14:29;101668.00;;;12.89;84.95
64095;BME280;50353;51.420;5.682;2023-02-17T11:16:58;101677.56;;;12.91;84.88
64095;BME280;50353;51.420;5.682;2023-02-17T11:19:33;101650.53;;;12.84;84.54
64095;BME280;50353;51.420;5.682;2023-02-17T11:22:01;101657.69;;;12.98;85.33
64095;BME280;50353;51.420;5.682;2023-02-17T11:24:34;101643.84;;;12.93;84.85
64095;BME280;50353;51.420;5.682;2023-02-17T11:27:03;101642.81;;;12.96;85.01
64095;BME280;50353;51.420;5.682;2023-02-17T11:29:31;101631.25;;;12.97;84.72
64095;BME280;50353;51.420;5.682;2023-02-17T11:31:59;101634.31;;;13.05;84.79
64095;BME280;50353;51.420;5.682;2023-02-17T11:34:28;101627.69;;;13.12;84.02
64095;BME280;50353;51.420;5.682;2023-02-17T11:37:20;101641.03;;;13.27;84.46
64095;BME280;50353;51.420;5.682;2023-02-17T11:39:50;101627.56;;;13.30;84.30
64095;BME280;50353;51.420;5.682;2023-02-17T11:42:25;101606.13;;;13.18;84.19
64095;BME280;50353;51.420;5.682;2023-02-17T11:44:53;101600.81;;;13.18;83.83
64095;BME280;50353;51.420;5.682;2023-02-17T11:50:10;101606.69;;;13.24;84.19
64095;BME280;50353;51.420;5.682;2023-02-17T11:53:19;101597.69;;;13.57;82.70
64095;BME280;50353;51.420;5.682;2023-02-17T11:56:13;101598.81;;;13.52;83.18
64095;BME280;50353;51.420;5.682;2023-02-17T11:59:02;101584.22;;;13.60;82.73
64095;BME280;50353;51.420;5.682;2023-02-17T12:01:53;101579.56;;;13.63;82.51
64095;BME280;50353;51.420;5.682;2023-02-17T12:04:39;101590.75;;;13.54;82.43
64095;BME280;50353;51.420;5.682;2023-02-17T12:07:32;101605.84;;;13.82;82.12
64095;BME280;50353;51.420;5.682;2023-02-17T12:26:18;101613.88;;;13.52;82.91
64095;BME280;50353;51.420;5.682;2023-02-17T12:29:10;101605.28;;;13.77;82.43
64095;BME280;50353;51.420;5.682;2023-02-17T12:34:53;101594.06;;;14.01;81.62
64095;BME280;50353;51.420;5.682;2023-02-17T12:37:23;101612.84;;;14.12;81.09
64095;BME280;50353;51.420;5.682;2023-02-17T12:39:55;101622.66;;;14.12;82.08
64095;BME280;50353;51.420;5.682;2023-02-17T12:42:59;101636.25;;;14.07;81.49
64095;BME280;50353;51.420;5.682;2023-02-17T12:45:36;101623.03;;;13.91;81.51
64095;BME280;50353;51.420;5.682;2023-02-17T12:48:15;101632.72;;;13.92;80.44
64095;BME280;50353;51.420;5.682;2023-02-17T12:50:55;101631.00;;;13.91;82.24
64095;BME280;50353;51.420;5.682;2023-02-17T12:53:47;101641.94;;;14.01;81.22
64095;BME280;50353;51.420;5.682;2023-02-17T12:59:42;101632.53;;;13.95;81.06
64095;BME280;50353;51.420;5.682;2023-02-17T13:02:12;101648.47;;;13.66;80.88
64095;BME280;50353;51.420;5.682;2023-02-17T13:04:39;101640.59;;;13.94;82.28
64095;BME280;50353;51.420;5.682;2023-02-17T13:09:48;101604.91;;;13.98;81.87
64095;BME280;50353;51.420;5.682;2023-02-17T13:12:31;101632.34;;;13.84;81.66
64095;BME280;50353;51.420;5.682;2023-02-17T13:15:04;101643.13;;;13.81;81.72
64095;BME280;50353;51.420;5.682;2023-02-17T13:17:34;101635.19;;;13.66;82.59
64095;BME280;50353;51.420;5.682;2023-02-17T13:22:40;101661.66;;;13.68;82.49
64095;BME280;50353;51.420;5.682;2023-02-17T13:25:09;101655.72;;;13.48;83.50
64095;BME280;50353;51.420;5.682;2023-02-17T13:27:36;101655.50;;;13.37;81.63
64095;BME280;50353;51.420;5.682;2023-02-17T13:32:32;101691.56;;;13.25;82.79
64095;BME280;50353;51.420;5.682;2023-02-17T13:35:05;101685.78;;;13.33;82.86
64095;BME280;50353;51.420;5.682;2023-02-17T13:39:56;101698.75;;;13.39;81.63
64095;BME280;50353;51.420;5.682;2023-02-17T13:42:40;101688.81;;;13.27;82.13
64095;BME280;50353;51.420;5.682;2023-02-17T13:45:25;101706.28;;;13.31;83.44
64095;BME280;50353;51.420;5.682;2023-02-17T13:47:54;101716.00;;;13.00;83.01
64095;BME280;50353;51.420;5.682;2023-02-17T13:50:46;101698.34;;;13.15;83.74
64095;BME280;50353;51.420;5.682;2023-02-17T13:56:04;101739.34;;;12.77;84.05
64095;BME280;50353;51.420;5.682;2023-02-17T13:58:33;101730.19;;;12.99;83.73
64095;BME280;50353;51.420;5.682;2023-02-17T14:00:59;101735.25;;;12.72;83.40
64095;BME280;50353;51.420;5.682;2023-02-17T14:03:33;101729.97;;;13.04;83.79